sensor_id;sensor_type;location;lat;lon;timestamp;temperature;humidity
6964;DHT22;3522;50.856;7.278;2023-04-01T00:02:20;10.00;99.90
6964;DHT22;3522;50.856;7.278;2023-04-01T00:04:46;10.10;99.90
6964;DHT22;3522;50.856;7.278;2023-04-01T00:07:15;10.10;99.90
6964;DHT22;3522;50.856;7.278;2023-04-01T00:09:41;10.00;99.90
6964;DHT22;3522;50.856;7.278;2023-04-01T00:12:08;10.00;99.90
6964;DHT22;3522;50.856;7.278;2023-04-01T00:14:35;10.00;99.90
6964;DHT22;3522;50.856;7.278;2023-04-01T00:17:02;10.00;99.90
6964;DHT22;3522;50.856;7.278;2023-04-01T00:19:28;10.00;99.90
6964;DHT22;3522;50.856;7.278;2023-04-01T00:21:55;10.00;99.90
6964;DHT22;3522;50.856;7.278;2023-04-01T00:24:23;10.00;99.90
6964;DHT22;3522;50.856;7.278;2023-04-01T00:26:50;9.90;99.90
6964;DHT22;3522;50.856;7.278;2023-04-01T00:29:16;10.00;99.90
6964;DHT22;3522;50.856;7.278;2023-04-01T00:31:43;10.00;99.90
6964;DHT22;3522;50.856;7.278;2023-04-01T00:34:10;10.00;99.90
6964;DHT22;3522;50.856;7.278;2023-04-01T00:36:36;10.00;99.90
6964;DHT22;3522;50.856;7.278;2023-04-01T00:39:03;10.10;99.90
6964;DHT22;3522;50.856;7.278;2023-04-01T00:41:31;10.00;99.90
6964;DHT22;3522;50.856;7.278;2023-04-01T00:44:11;10.00;99.90
6964;DHT22;3522;50.856;7.278;2023-04-01T00:46:40;10.00;99.90
6964;DHT22;3522;50.856;7.278;2023-04-01T00:49:07;10.10;99.90
6964;DHT22;3522;50.856;7.278;2023-04-01T00:51:34;10.00;99.90
6964;DHT22;3522;50.856;7.278;2023-04-01T00:54:03;10.10;99.90
6964;DHT22;3522;50.856;7.278;2023-04-01T00:56:32;10.00;99.90
6964;DHT22;3522;50.856;7.278;2023-04-01T00:59:01;10.00;99.90
6964;DHT22;3522;50.856;7.278;2023-04-01T01:01:28;10.00;99.90
6964;DHT22;3522;50.856;7.278;2023-04-01T01:03:56;10.00;99.90
6964;DHT22;3522;50.856;7.278;2023-04-01T01:06:24;10.10;99.90
6964;DHT22;3522;50.856;7.278;2023-04-01T01:08:57;10.10;99.90
6964;DHT22;3522;50.856;7.278;2023-04-01T01:11:29;10.10;99.90
6964;DHT22;3522;50.856;7.278;2023-04-01T01:14:01;10.10;99.90
6964;DHT22;3522;50.856;7.278;2023-04-01T01:16:31;10.10;99.90
6964;DHT22;3522;50.856;7.278;2023-04-01T01:19:03;10.10;99.90
6964;DHT22;3522;50.856;7.278;2023-04-01T01:21:42;10.10;99.90
6964;DHT22;3522;50.856;7.278;2023-04-01T01:24:22;10.10;99.90
6964;DHT22;3522;50.856;7.278;2023-04-01T01:26:59;10.10;99.90
6964;DHT22;3522;50.856;7.278;2023-04-01T01:32:11;10.10;99.90
6964;DHT22;3522;50.856;7.278;2023-04-01T01:34:43;10.10;99.90
6964;DHT22;3522;50.856;7.278;2023-04-01T01:37:16;10.10;99.90
6964;DHT22;3522;50.856;7.278;2023-04-01T01:39:44;10.10;99.90
6964;DHT22;3522;50.856;7.278;2023-04-01T01:42:13;10.10;99.90
6964;DHT22;3522;50.856;7.278;2023-04-01T01:44:40;10.10;99.90
6964;DHT22;3522;50.856;7.278;2023-04-01T01:47:08;10.10;99.90
6964;DHT22;3522;50.856;7.278;2023-04-01T01:49:35;10.10;99.90
6964;DHT22;3522;50.856;7.278;2023-04-01T01:52:02;10.10;99.90
6964;DHT22;3522;50.856;7.278;2023-04-01T01:54:31;10.10;99.90
6964;DHT22;3522;50.856;7.278;2023-04-01T01:57:00;10.10;99.90
6964;DHT22;3522;50.856;7.278;2023-04-01T01:59:28;10.10;99.90
6964;DHT22;3522;50.856;7.278;2023-04-01T02:01:55;10.10;99.90
6964;DHT22;3522;50.856;7.278;2023-04-01T02:04:24;10.10;99.90
6964;DHT22;3522;50.856;7.278;2023-04-01T02:06:53;10.00;99.90
6964;DHT22;3522;50.856;7.278;2023-04-01T02:09:22;10.00;99.90
6964;DHT22;3522;50.856;7.278;2023-04-01T02:11:51;10.00;99.90
6964;DHT22;3522;50.856;7.278;2023-04-01T02:14:19;10.00;99.90
6964;DHT22;3522;50.856;7.278;2023-04-01T02:16:47;10.00;99.90
6964;DHT22;3522;50.856;7.278;2023-04-01T02:19:18;10.00;99.90
6964;DHT22;3522;50.856;7.278;2023-04-01T02:21:48;9.90;99.90
6964;DHT22;3522;50.856;7.278;2023-04-01T02:24:17;9.90;99.90
6964;DHT22;3522;50.856;7.278;2023-04-01T02:26:46;9.90;99.90
6964;DHT22;3522;50.856;7.278;2023-04-01T02:29:14;9.90;99.90
6964;DHT22;3522;50.856;7.278;2023-04-01T02:31:41;9.80;99.90
6964;DHT22;3522;50.856;7.278;2023-04-01T02:34:09;9.80;99.90
6964;DHT22;3522;50.856;7.278;2023-04-01T02:36:35;9.80;99.90
6964;DHT22;3522;50.856;7.278;2023-04-01T02:39:02;9.80;99.90
6964;DHT22;3522;50.856;7.278;2023-04-01T02:41:30;9.80;99.90
6964;DHT22;3522;50.856;7.278;2023-04-01T02:43:56;9.70;99.90
6964;DHT22;3522;50.856;7.278;2023-04-01T02:46:25;9.70;99.90
6964;DHT22;3522;50.856;7.278;2023-04-01T02:48:52;9.60;99.90
6964;DHT22;3522;50.856;7.278;2023-04-01T02:51:19;9.60;99.90
6964;DHT22;3522;50.856;7.278;2023-04-01T02:53:46;9.50;99.90
6964;DHT22;3522;50.856;7.278;2023-04-01T02:56:12;9.50;99.90
6964;DHT22;3522;50.856;7.278;2023-04-01T02:58:39;9.40;99.90
6964;DHT22;3522;50.856;7.278;2023-04-01T03:01:05;9.40;99.90
6964;DHT22;3522;50.856;7.278;2023-04-01T03:03:34;9.40;99.90
6964;DHT22;3522;50.856;7.278;2023-04-01T03:06:04;9.30;99.90
6964;DHT22;3522;50.856;7.278;2023-04-01T03:08:31;9.30;99.90
6964;DHT22;3522;50.856;7.278;2023-04-01T03:10:57;9.30;99.90
6964;DHT22;3522;50.856;7.278;2023-04-01T03:13:24;9.20;99.90
6964;DHT22;3522;50.856;7.278;2023-04-01T03:15:50;9.20;99.90
6964;DHT22;3522;50.856;7.278;2023-04-01T03:18:17;9.20;99.90
6964;DHT22;3522;50.856;7.278;2023-04-01T03:20:45;9.20;99.90
6964;DHT22;3522;50.856;7.278;2023-04-01T03:23:12;9.20;99.90
6964;DHT22;3522;50.856;7.278;2023-04-01T03:25:38;9.10;99.90
6964;DHT22;3522;50.856;7.278;2023-04-01T03:28:05;9.10;99.90
6964;DHT22;3522;50.856;7.278;2023-04-01T03:30:32;9.10;99.90
6964;DHT22;3522;50.856;7.278;2023-04-01T03:32:58;9.00;99.90
6964;DHT22;3522;50.856;7.278;2023-04-01T03:35:25;9.00;99.90
6964;DHT22;3522;50.856;7.278;2023-04-01T03:37:53;9.00;99.90
6964;DHT22;3522;50.856;7.278;2023-04-01T03:40:20;9.00;99.90
6964;DHT22;3522;50.856;7.278;2023-04-01T03:42:47;9.00;99.90
6964;DHT22;3522;50.856;7.278;2023-04-01T03:45:14;8.90;99.90
6964;DHT22;3522;50.856;7.278;2023-04-01T03:47:41;9.00;99.90
6964;DHT22;3522;50.856;7.278;2023-04-01T03:50:08;8.90;99.90
6964;DHT22;3522;50.856;7.278;2023-04-01T03:52:35;9.00;99.90
6964;DHT22;3522;50.856;7.278;2023-04-01T03:55:03;9.00;99.90
6964;DHT22;3522;50.856;7.278;2023-04-01T03:57:30;8.90;99.90
6964;DHT22;3522;50.856;7.278;2023-04-01T03:59:57;9.00;99.90
6964;DHT22;3522;50.856;7.278;2023-04-01T04:02:23;8.90;99.90
6964;DHT22;3522;50.856;7.278;2023-04-01T04:04:50;8.90;99.90
6964;DHT22;3522;50.856;7.278;2023-04-01T04:07:16;8.90;99.90
6964;DHT22;3522;50.856;7.278;2023-04-01T04:09:43;8.90;99.90
6964;DHT22;3522;50.856;7.278;2023-04-01T04:12:11;8.80;99.90
6964;DHT22;3522;50.856;7.278;2023-04-01T04:14:37;8.80;99.90
6964;DHT22;3522;50.856;7.278;2023-04-01T04:17:04;8.80;99.90
6964;DHT22;3522;50.856;7.278;2023-04-01T04:19:31;8.80;99.90
6964;DHT22;3522;50.856;7.278;2023-04-01T04:21:59;8.80;99.90
6964;DHT22;3522;50.856;7.278;2023-04-01T04:24:26;8.80;99.90
6964;DHT22;3522;50.856;7.278;2023-04-01T04:26:53;8.80;99.90
6964;DHT22;3522;50.856;7.278;2023-04-01T04:29:21;8.80;99.90
6964;DHT22;3522;50.856;7.278;2023-04-01T04:31:48;8.80;99.90
6964;DHT22;3522;50.856;7.278;2023-04-01T04:34:14;8.80;99.90
6964;DHT22;3522;50.856;7.278;2023-04-01T04:36:41;8.90;99.90
6964;DHT22;3522;50.856;7.278;2023-04-01T04:39:07;8.90;99.90
6964;DHT22;3522;50.856;7.278;2023-04-01T04:41:36;9.00;99.90
6964;DHT22;3522;50.856;7.278;2023-04-01T04:44:02;9.00;99.90
6964;DHT22;3522;50.856;7.278;2023-04-01T04:46:31;9.00;99.90
6964;DHT22;3522;50.856;7.278;2023-04-01T04:48:57;9.10;99.90
6964;DHT22;3522;50.856;7.278;2023-04-01T04:51:24;9.10;99.90
6964;DHT22;3522;50.856;7.278;2023-04-01T04:53:51;9.10;99.90
6964;DHT22;3522;50.856;7.278;2023-04-01T04:56:17;9.20;99.90
6964;DHT22;3522;50.856;7.278;2023-04-01T04:58:44;9.20;99.90
6964;DHT22;3522;50.856;7.278;2023-04-01T05:01:11;9.10;99.90
6964;DHT22;3522;50.856;7.278;2023-04-01T05:03:40;9.20;99.90
6964;DHT22;3522;50.856;7.278;2023-04-01T05:06:07;9.10;99.90
6964;DHT22;3522;50.856;7.278;2023-04-01T05:08:34;9.10;99.90
6964;DHT22;3522;50.856;7.278;2023-04-01T05:11:01;9.10;99.90
6964;DHT22;3522;50.856;7.278;2023-04-01T05:13:28;9.00;99.90
6964;DHT22;3522;50.856;7.278;2023-04-01T05:15:55;9.00;99.90
6964;DHT22;3522;50.856;7.278;2023-04-01T05:18:21;9.00;99.90
6964;DHT22;3522;50.856;7.278;2023-04-01T05:20:50;9.00;99.90
6964;DHT22;3522;50.856;7.278;2023-04-01T05:23:17;9.00;99.90
6964;DHT22;3522;50.856;7.278;2023-04-01T05:25:46;9.00;99.90
6964;DHT22;3522;50.856;7.278;2023-04-01T05:28:13;9.00;99.90
6964;DHT22;3522;50.856;7.278;2023-04-01T05:30:40;9.00;99.90
6964;DHT22;3522;50.856;7.278;2023-04-01T05:33:07;8.90;99.90
6964;DHT22;3522;50.856;7.278;2023-04-01T05:35:33;8.90;99.90
6964;DHT22;3522;50.856;7.278;2023-04-01T05:38:02;8.90;99.90
6964;DHT22;3522;50.856;7.278;2023-04-01T05:40:28;8.90;99.90
6964;DHT22;3522;50.856;7.278;2023-04-01T05:42:55;8.90;99.90
6964;DHT22;3522;50.856;7.278;2023-04-01T05:45:21;8.80;99.90
6964;DHT22;3522;50.856;7.278;2023-04-01T05:47:48;8.80;99.90
6964;DHT22;3522;50.856;7.278;2023-04-01T05:50:14;8.80;99.90
6964;DHT22;3522;50.856;7.278;2023-04-01T05:52:41;8.90;99.90
6964;DHT22;3522;50.856;7.278;2023-04-01T05:55:09;8.90;99.90
6964;DHT22;3522;50.856;7.278;2023-04-01T05:57:36;8.80;99.90
6964;DHT22;3522;50.856;7.278;2023-04-01T06:00:02;8.80;99.90
6964;DHT22;3522;50.856;7.278;2023-04-01T06:02:29;8.90;99.90
6964;DHT22;3522;50.856;7.278;2023-04-01T06:05:00;8.90;99.90
6964;DHT22;3522;50.856;7.278;2023-04-01T06:07:28;8.90;99.90
6964;DHT22;3522;50.856;7.278;2023-04-01T06:09:55;8.80;99.90
6964;DHT22;3522;50.856;7.278;2023-04-01T06:12:30;8.80;99.90
6964;DHT22;3522;50.856;7.278;2023-04-01T06:15:03;8.90;99.90
6964;DHT22;3522;50.856;7.278;2023-04-01T06:17:36;8.80;99.90
6964;DHT22;3522;50.856;7.278;2023-04-01T06:20:08;8.80;99.90
6964;DHT22;3522;50.856;7.278;2023-04-01T06:22:44;8.90;99.90
6964;DHT22;3522;50.856;7.278;2023-04-01T06:25:20;8.80;99.90
6964;DHT22;3522;50.856;7.278;2023-04-01T06:27:55;8.80;99.90
6964;DHT22;3522;50.856;7.278;2023-04-01T06:30:31;8.80;99.90
6964;DHT22;3522;50.856;7.278;2023-04-01T06:33:08;8.80;99.90
6964;DHT22;3522;50.856;7.278;2023-04-01T06:35:43;8.80;99.90
6964;DHT22;3522;50.856;7.278;2023-04-01T06:41:15;8.90;99.90
6964;DHT22;3522;50.856;7.278;2023-04-01T06:43:52;8.80;99.90
6964;DHT22;3522;50.856;7.278;2023-04-01T06:46:20;8.80;99.90
6964;DHT22;3522;50.856;7.278;2023-04-01T06:48:53;8.80;99.90
6964;DHT22;3522;50.856;7.278;2023-04-01T06:51:23;8.90;99.90
6964;DHT22;3522;50.856;7.278;2023-04-01T06:53:53;8.90;99.90
6964;DHT22;3522;50.856;7.278;2023-04-01T06:56:21;9.00;99.90
6964;DHT22;3522;50.856;7.278;2023-04-01T06:58:53;8.90;99.90
6964;DHT22;3522;50.856;7.278;2023-04-01T07:01:20;9.00;99.90
6964;DHT22;3522;50.856;7.278;2023-04-01T07:03:49;9.00;99.90
6964;DHT22;3522;50.856;7.278;2023-04-01T07:06:20;9.00;99.90
6964;DHT22;3522;50.856;7.278;2023-04-01T07:08:50;9.10;99.90
6964;DHT22;3522;50.856;7.278;2023-04-01T07:11:20;9.10;99.90
6964;DHT22;3522;50.856;7.278;2023-04-01T07:13:50;9.20;99.90
6964;DHT22;3522;50.856;7.278;2023-04-01T07:16:21;9.30;99.90
6964;DHT22;3522;50.856;7.278;2023-04-01T07:18:51;9.30;99.90
6964;DHT22;3522;50.856;7.278;2023-04-01T07:21:23;9.30;99.90
6964;DHT22;3522;50.856;7.278;2023-04-01T07:23:51;9.30;99.90
6964;DHT22;3522;50.856;7.278;2023-04-01T07:26:21;9.30;99.90
6964;DHT22;3522;50.856;7.278;2023-04-01T07:28:48;9.30;99.90
6964;DHT22;3522;50.856;7.278;2023-04-01T07:31:22;9.30;99.90
6964;DHT22;3522;50.856;7.278;2023-04-01T07:33:55;9.40;99.90
6964;DHT22;3522;50.856;7.278;2023-04-01T07:36:24;9.40;99.90
6964;DHT22;3522;50.856;7.278;2023-04-01T07:38:54;9.40;99.90
6964;DHT22;3522;50.856;7.278;2023-04-01T07:41:23;9.40;99.90
6964;DHT22;3522;50.856;7.278;2023-04-01T07:43:54;9.40;99.90
6964;DHT22;3522;50.856;7.278;2023-04-01T07:46:26;9.40;99.90
6964;DHT22;3522;50.856;7.278;2023-04-01T07:48:57;9.50;99.90
6964;DHT22;3522;50.856;7.278;2023-04-01T07:51:27;9.50;99.90
6964;DHT22;3522;50.856;7.278;2023-04-01T07:53:57;9.50;99.90
6964;DHT22;3522;50.856;7.278;2023-04-01T07:56:28;9.50;99.90
6964;DHT22;3522;50.856;7.278;2023-04-01T07:58:59;9.50;99.90
6964;DHT22;3522;50.856;7.278;2023-04-01T08:01:30;9.40;99.90
6964;DHT22;3522;50.856;7.278;2023-04-01T08:04:13;9.40;99.90
6964;DHT22;3522;50.856;7.278;2023-04-01T08:06:43;9.40;99.90
6964;DHT22;3522;50.856;7.278;2023-04-01T08:09:13;9.40;99.90
6964;DHT22;3522;50.856;7.278;2023-04-01T08:11:46;9.40;99.90
6964;DHT22;3522;50.856;7.278;2023-04-01T08:14:18;9.40;99.90
6964;DHT22;3522;50.856;7.278;2023-04-01T08:16:51;9.40;99.90
6964;DHT22;3522;50.856;7.278;2023-04-01T08:19:21;9.40;99.90
6964;DHT22;3522;50.856;7.278;2023-04-01T08:21:54;9.40;99.90
6964;DHT22;3522;50.856;7.278;2023-04-01T08:24:23;9.30;99.90
6964;DHT22;3522;50.856;7.278;2023-04-01T08:26:51;9.40;99.90
6964;DHT22;3522;50.856;7.278;2023-04-01T08:29:21;9.30;99.90
6964;DHT22;3522;50.856;7.278;2023-04-01T08:31:51;9.30;99.90
6964;DHT22;3522;50.856;7.278;2023-04-01T08:34:20;9.30;99.90
6964;DHT22;3522;50.856;7.278;2023-04-01T08:36:49;9.30;99.90
6964;DHT22;3522;50.856;7.278;2023-04-01T08:39:20;9.30;99.90
6964;DHT22;3522;50.856;7.278;2023-04-01T08:41:54;9.30;99.90
6964;DHT22;3522;50.856;7.278;2023-04-01T08:47:36;9.40;99.90
6964;DHT22;3522;50.856;7.278;2023-04-01T08:50:23;9.40;99.90
6964;DHT22;3522;50.856;7.278;2023-04-01T08:52:52;9.40;99.90
6964;DHT22;3522;50.856;7.278;2023-04-01T08:55:27;9.40;99.90
6964;DHT22;3522;50.856;7.278;2023-04-01T08:58:02;9.40;99.90
6964;DHT22;3522;50.856;7.278;2023-04-01T09:00:31;9.40;99.90
6964;DHT22;3522;50.856;7.278;2023-04-01T09:05:47;9.50;99.90
6964;DHT22;3522;50.856;7.278;2023-04-01T09:08:27;9.50;99.90
6964;DHT22;3522;50.856;7.278;2023-04-01T09:11:04;9.50;99.90
6964;DHT22;3522;50.856;7.278;2023-04-01T09:13:36;9.50;99.90
6964;DHT22;3522;50.856;7.278;2023-04-01T09:16:10;9.60;99.90
6964;DHT22;3522;50.856;7.278;2023-04-01T09:18:42;9.60;99.90
6964;DHT22;3522;50.856;7.278;2023-04-01T09:23:59;9.60;99.90
6964;DHT22;3522;50.856;7.278;2023-04-01T09:26:34;9.60;99.90
6964;DHT22;3522;50.856;7.278;2023-04-01T09:29:08;9.60;99.90
6964;DHT22;3522;50.856;7.278;2023-04-01T09:31:40;9.60;99.90
6964;DHT22;3522;50.856;7.278;2023-04-01T09:34:17;9.60;99.90
6964;DHT22;3522;50.856;7.278;2023-04-01T09:36:47;9.60;99.90
6964;DHT22;3522;50.856;7.278;2023-04-01T09:39:22;9.60;99.90
6964;DHT22;3522;50.856;7.278;2023-04-01T09:41:56;9.50;99.90
6964;DHT22;3522;50.856;7.278;2023-04-01T09:44:25;9.50;99.90
6964;DHT22;3522;50.856;7.278;2023-04-01T09:47:00;9.50;99.90
6964;DHT22;3522;50.856;7.278;2023-04-01T09:49:36;9.50;99.90
6964;DHT22;3522;50.856;7.278;2023-04-01T09:52:10;9.50;99.90
6964;DHT22;3522;50.856;7.278;2023-04-01T09:54:48;9.40;99.90
6964;DHT22;3522;50.856;7.278;2023-04-01T09:57:27;9.40;99.90
6964;DHT22;3522;50.856;7.278;2023-04-01T10:00:02;9.40;99.90
6964;DHT22;3522;50.856;7.278;2023-04-01T10:05:47;9.50;99.90
6964;DHT22;3522;50.856;7.278;2023-04-01T10:08:25;9.50;99.90
6964;DHT22;3522;50.856;7.278;2023-04-01T10:11:00;9.50;99.90
6964;DHT22;3522;50.856;7.278;2023-04-01T10:13:34;9.50;99.90
6964;DHT22;3522;50.856;7.278;2023-04-01T10:19:10;9.60;99.90
6964;DHT22;3522;50.856;7.278;2023-04-01T10:21:53;9.60;99.90
6964;DHT22;3522;50.856;7.278;2023-04-01T10:27:16;9.60;99.90
6964;DHT22;3522;50.856;7.278;2023-04-01T10:29:58;9.70;99.90
6964;DHT22;3522;50.856;7.278;2023-04-01T10:35:20;9.70;99.90
6964;DHT22;3522;50.856;7.278;2023-04-01T10:38:03;9.70;99.90
6964;DHT22;3522;50.856;7.278;2023-04-01T10:43:34;9.70;99.90
6964;DHT22;3522;50.856;7.278;2023-04-01T10:46:19;9.70;99.90
6964;DHT22;3522;50.856;7.278;2023-04-01T10:51:53;9.70;99.90
6964;DHT22;3522;50.856;7.278;2023-04-01T10:54:40;9.70;99.90
6964;DHT22;3522;50.856;7.278;2023-04-01T10:57:12;9.80;99.90
6964;DHT22;3522;50.856;7.278;2023-04-01T10:59:55;9.90;99.90
6964;DHT22;3522;50.856;7.278;2023-04-01T11:08:22;10.10;99.90
6964;DHT22;3522;50.856;7.278;2023-04-01T11:11:10;10.10;99.90
6964;DHT22;3522;50.856;7.278;2023-04-01T11:16:39;10.00;99.90
6964;DHT22;3522;50.856;7.278;2023-04-01T11:19:18;10.00;99.90
6964;DHT22;3522;50.856;7.278;2023-04-01T11:24:51;10.00;99.90
6964;DHT22;3522;50.856;7.278;2023-04-01T11:27:25;10.10;99.90
6964;DHT22;3522;50.856;7.278;2023-04-01T11:30:06;10.10;99.90
6964;DHT22;3522;50.856;7.278;2023-04-01T11:32:41;10.20;99.90
6964;DHT22;3522;50.856;7.278;2023-04-01T11:35:18;10.40;99.90
6964;DHT22;3522;50.856;7.278;2023-04-01T11:37:48;10.50;99.90
6964;DHT22;3522;50.856;7.278;2023-04-01T11:40:20;10.50;99.90
6964;DHT22;3522;50.856;7.278;2023-04-01T11:42:52;10.50;99.90
6964;DHT22;3522;50.856;7.278;2023-04-01T11:45:24;10.50;99.90
6964;DHT22;3522;50.856;7.278;2023-04-01T11:50:50;10.40;99.90
6964;DHT22;3522;50.856;7.278;2023-04-01T11:53:26;10.30;99.90
6964;DHT22;3522;50.856;7.278;2023-04-01T11:55:56;10.30;99.90
6964;DHT22;3522;50.856;7.278;2023-04-01T11:58:35;10.20;99.90
6964;DHT22;3522;50.856;7.278;2023-04-01T12:01:08;10.30;99.90
6964;DHT22;3522;50.856;7.278;2023-04-01T12:03:41;10.40;99.90
6964;DHT22;3522;50.856;7.278;2023-04-01T12:06:13;10.50;99.90
6964;DHT22;3522;50.856;7.278;2023-04-01T12:08:42;10.50;99.90
6964;DHT22;3522;50.856;7.278;2023-04-01T12:11:15;10.50;99.90
6964;DHT22;3522;50.856;7.278;2023-04-01T12:13:45;10.60;99.90
6964;DHT22;3522;50.856;7.278;2023-04-01T12:16:21;10.60;99.90
6964;DHT22;3522;50.856;7.278;2023-04-01T12:18:51;10.60;99.90
6964;DHT22;3522;50.856;7.278;2023-04-01T12:21:24;10.60;99.90
6964;DHT22;3522;50.856;7.278;2023-04-01T12:26:41;10.50;99.90
6964;DHT22;3522;50.856;7.278;2023-04-01T12:29:14;10.60;99.90
6964;DHT22;3522;50.856;7.278;2023-04-01T12:31:47;10.60;99.90
6964;DHT22;3522;50.856;7.278;2023-04-01T12:37:15;10.60;99.90
6964;DHT22;3522;50.856;7.278;2023-04-01T12:40:02;10.50;99.90
6964;DHT22;3522;50.856;7.278;2023-04-01T12:42:36;10.40;99.90
6964;DHT22;3522;50.856;7.278;2023-04-01T12:45:11;10.40;99.90
6964;DHT22;3522;50.856;7.278;2023-04-01T12:47:52;10.40;99.90
6964;DHT22;3522;50.856;7.278;2023-04-01T12:50:31;10.50;99.90
6964;DHT22;3522;50.856;7.278;2023-04-01T12:53:09;10.50;99.90
6964;DHT22;3522;50.856;7.278;2023-04-01T12:55:40;10.50;99.90
6964;DHT22;3522;50.856;7.278;2023-04-01T12:58:23;10.60;99.90
6964;DHT22;3522;50.856;7.278;2023-04-01T13:01:07;10.70;99.90
6964;DHT22;3522;50.856;7.278;2023-04-01T13:03:41;10.70;99.90
6964;DHT22;3522;50.856;7.278;2023-04-01T13:08:57;10.60;99.90
6964;DHT22;3522;50.856;7.278;2023-04-01T13:11:30;10.60;99.90
6964;DHT22;3522;50.856;7.278;2023-04-01T13:16:45;10.50;99.90
6964;DHT22;3522;50.856;7.278;2023-04-01T13:19:16;10.50;99.90
6964;DHT22;3522;50.856;7.278;2023-04-01T13:21:46;10.40;99.90
6964;DHT22;3522;50.856;7.278;2023-04-01T13:24:24;10.40;99.90
6964;DHT22;3522;50.856;7.278;2023-04-01T13:26:56;10.50;99.90
6964;DHT22;3522;50.856;7.278;2023-04-01T13:29:25;10.50;99.90
6964;DHT22;3522;50.856;7.278;2023-04-01T13:32:00;10.50;99.90
6964;DHT22;3522;50.856;7.278;2023-04-01T13:34:35;10.50;99.90
6964;DHT22;3522;50.856;7.278;2023-04-01T13:37:10;10.50;99.90
6964;DHT22;3522;50.856;7.278;2023-04-01T13:39:47;10.50;99.90
6964;DHT22;3522;50.856;7.278;2023-04-01T13:42:17;10.50;99.90
6964;DHT22;3522;50.856;7.278;2023-04-01T13:44:46;10.50;99.90
6964;DHT22;3522;50.856;7.278;2023-04-01T13:50:08;10.40;99.90
6964;DHT22;3522;50.856;7.278;2023-04-01T14:01:02;10.40;99.90
6964;DHT22;3522;50.856;7.278;2023-04-01T14:03:32;10.40;99.90
6964;DHT22;3522;50.856;7.278;2023-04-01T14:06:06;10.40;99.90
6964;DHT22;3522;50.856;7.278;2023-04-01T14:08:42;10.40;99.90
6964;DHT22;3522;50.856;7.278;2023-04-01T14:11:17;10.50;99.90
6964;DHT22;3522;50.856;7.278;2023-04-01T14:13:48;10.50;99.90
6964;DHT22;3522;50.856;7.278;2023-04-01T14:16:35;10.60;99.90
6964;DHT22;3522;50.856;7.278;2023-04-01T14:19:08;10.50;99.90
6964;DHT22;3522;50.856;7.278;2023-04-01T14:21:38;10.40;99.90
6964;DHT22;3522;50.856;7.278;2023-04-01T14:26:56;10.40;99.90
6964;DHT22;3522;50.856;7.278;2023-04-01T14:29:27;10.40;99.90
6964;DHT22;3522;50.856;7.278;2023-04-01T14:32:02;10.40;99.90
6964;DHT22;3522;50.856;7.278;2023-04-01T14:34:37;10.40;99.90
6964;DHT22;3522;50.856;7.278;2023-04-01T14:37:10;10.50;99.90
6964;DHT22;3522;50.856;7.278;2023-04-01T14:39:43;10.50;99.90
6964;DHT22;3522;50.856;7.278;2023-04-01T14:42:18;10.50;99.90
6964;DHT22;3522;50.856;7.278;2023-04-01T14:44:57;10.40;99.90
6964;DHT22;3522;50.856;7.278;2023-04-01T14:47:38;10.40;99.90
6964;DHT22;3522;50.856;7.278;2023-04-01T14:50:09;10.40;99.90
6964;DHT22;3522;50.856;7.278;2023-04-01T14:52:39;10.40;99.90
6964;DHT22;3522;50.856;7.278;2023-04-01T14:55:15;10.30;99.90
6964;DHT22;3522;50.856;7.278;2023-04-01T14:57:50;10.30;99.90
6964;DHT22;3522;50.856;7.278;2023-04-01T15:00:24;10.20;99.90
6964;DHT22;3522;50.856;7.278;2023-04-01T15:02:54;10.20;99.90
6964;DHT22;3522;50.856;7.278;2023-04-01T15:05:27;10.30;99.90
6964;DHT22;3522;50.856;7.278;2023-04-01T15:08:01;10.40;99.90
6964;DHT22;3522;50.856;7.278;2023-04-01T15:10:32;10.50;99.90
6964;DHT22;3522;50.856;7.278;2023-04-01T15:13:05;10.60;99.90
6964;DHT22;3522;50.856;7.278;2023-04-01T15:15:39;10.60;99.90
6964;DHT22;3522;50.856;7.278;2023-04-01T15:18:13;10.60;99.90
6964;DHT22;3522;50.856;7.278;2023-04-01T15:20:45;10.50;99.90
6964;DHT22;3522;50.856;7.278;2023-04-01T15:23:19;10.50;99.90
6964;DHT22;3522;50.856;7.278;2023-04-01T15:26:02;10.30;99.90
6964;DHT22;3522;50.856;7.278;2023-04-01T15:28:32;10.30;99.90
6964;DHT22;3522;50.856;7.278;2023-04-01T15:31:04;10.30;99.90
6964;DHT22;3522;50.856;7.278;2023-04-01T15:33:41;10.20;99.90
6964;DHT22;3522;50.856;7.278;2023-04-01T15:36:12;10.20;99.90
6964;DHT22;3522;50.856;7.278;2023-04-01T15:38:42;10.10;99.90
6964;DHT22;3522;50.856;7.278;2023-04-01T15:41:14;10.10;99.90
6964;DHT22;3522;50.856;7.278;2023-04-01T15:43:42;10.10;99.90
6964;DHT22;3522;50.856;7.278;2023-04-01T15:46:24;10.00;99.90
6964;DHT22;3522;50.856;7.278;2023-04-01T15:49:00;10.10;99.90
6964;DHT22;3522;50.856;7.278;2023-04-01T15:51:32;10.10;99.90
6964;DHT22;3522;50.856;7.278;2023-04-01T15:54:06;10.20;99.90
6964;DHT22;3522;50.856;7.278;2023-04-01T15:56:46;10.20;99.90
6964;DHT22;3522;50.856;7.278;2023-04-01T15:59:19;10.20;99.90
6964;DHT22;3522;50.856;7.278;2023-04-01T16:01:49;10.30;99.90
6964;DHT22;3522;50.856;7.278;2023-04-01T16:04:24;10.40;99.90
6964;DHT22;3522;50.856;7.278;2023-04-01T16:06:56;10.30;99.90
6964;DHT22;3522;50.856;7.278;2023-04-01T16:09:31;10.30;99.90
6964;DHT22;3522;50.856;7.278;2023-04-01T16:12:03;10.30;99.90
6964;DHT22;3522;50.856;7.278;2023-04-01T16:14:33;10.40;99.90
6964;DHT22;3522;50.856;7.278;2023-04-01T16:17:11;10.40;99.90
6964;DHT22;3522;50.856;7.278;2023-04-01T16:19:50;10.40;99.90
6964;DHT22;3522;50.856;7.278;2023-04-01T16:22:19;10.40;99.90
6964;DHT22;3522;50.856;7.278;2023-04-01T16:24:49;10.30;99.90
6964;DHT22;3522;50.856;7.278;2023-04-01T16:27:18;10.30;99.90
6964;DHT22;3522;50.856;7.278;2023-04-01T16:29:46;10.30;99.90
6964;DHT22;3522;50.856;7.278;2023-04-01T16:32:17;10.20;99.90
6964;DHT22;3522;50.856;7.278;2023-04-01T16:34:47;10.20;99.90
6964;DHT22;3522;50.856;7.278;2023-04-01T16:37:21;10.10;99.90
6964;DHT22;3522;50.856;7.278;2023-04-01T16:40:01;10.00;99.90
6964;DHT22;3522;50.856;7.278;2023-04-01T16:42:34;9.90;99.90
6964;DHT22;3522;50.856;7.278;2023-04-01T16:45:15;9.90;99.90
6964;DHT22;3522;50.856;7.278;2023-04-01T16:47:45;10.00;99.90
6964;DHT22;3522;50.856;7.278;2023-04-01T16:50:13;9.90;99.90
6964;DHT22;3522;50.856;7.278;2023-04-01T16:52:47;9.90;99.90
6964;DHT22;3522;50.856;7.278;2023-04-01T16:55:18;9.80;99.90
6964;DHT22;3522;50.856;7.278;2023-04-01T16:57:46;9.80;99.90
6964;DHT22;3522;50.856;7.278;2023-04-01T17:00:18;9.80;99.90
6964;DHT22;3522;50.856;7.278;2023-04-01T17:02:49;9.80;99.90
6964;DHT22;3522;50.856;7.278;2023-04-01T17:05:17;9.80;99.90
6964;DHT22;3522;50.856;7.278;2023-04-01T17:07:48;9.80;99.90
6964;DHT22;3522;50.856;7.278;2023-04-01T17:10:22;9.80;99.90
6964;DHT22;3522;50.856;7.278;2023-04-01T17:12:53;9.80;99.90
6964;DHT22;3522;50.856;7.278;2023-04-01T17:15:25;9.80;99.90
6964;DHT22;3522;50.856;7.278;2023-04-01T17:17:54;9.80;99.90
6964;DHT22;3522;50.856;7.278;2023-04-01T17:20:36;9.80;99.90
6964;DHT22;3522;50.856;7.278;2023-04-01T17:23:10;9.80;99.90
6964;DHT22;3522;50.856;7.278;2023-04-01T17:25:41;9.70;99.90
6964;DHT22;3522;50.856;7.278;2023-04-01T17:28:15;9.70;99.90
6964;DHT22;3522;50.856;7.278;2023-04-01T17:30:45;9.70;99.90
6964;DHT22;3522;50.856;7.278;2023-04-01T17:33:19;9.60;99.90
6964;DHT22;3522;50.856;7.278;2023-04-01T17:35:52;9.60;99.90
6964;DHT22;3522;50.856;7.278;2023-04-01T17:38:23;9.60;99.90
6964;DHT22;3522;50.856;7.278;2023-04-01T17:40:54;9.60;99.90
6964;DHT22;3522;50.856;7.278;2023-04-01T17:43:25;9.60;99.90
6964;DHT22;3522;50.856;7.278;2023-04-01T17:46:01;9.60;99.90
6964;DHT22;3522;50.856;7.278;2023-04-01T17:48:33;9.60;99.90